createdAt,value
2019-04-23T00:00:23.581Z,2.06
2019-04-23T00:05:40.736Z,2.16
2019-04-23T00:15:53.490Z,2.10
2019-04-23T00:20:57.767Z,2.03
2019-04-23T00:31:13.677Z,2.26
2019-04-23T00:41:25.054Z,2.20
2019-04-23T00:51:36.710Z,2.17
2019-04-23T00:56:44.625Z,2.10
2019-04-23T01:01:56.848Z,2.06
2019-04-23T01:06:59.487Z,2.20
2019-04-23T01:12:06.416Z,2.33
2019-04-23T01:17:17.038Z,2.36
2019-04-23T01:21:58.098Z,2.36
2019-04-23T01:27:32.522Z,2.31
2019-04-23T01:32:32.058Z,2.33
2019-04-23T01:37:39.783Z,2.47
2019-04-23T01:47:50.108Z,2.47
2019-04-23T01:53:02.869Z,2.55
2019-04-23T01:58:27.457Z,2.56
2019-04-23T02:08:22.767Z,2.74
2019-04-23T02:13:31.176Z,2.75
2019-04-23T02:18:37.319Z,2.73
2019-04-23T02:39:09.502Z,2.96
2019-04-23T02:44:24.097Z,3.03
2019-04-23T02:49:27.022Z,3.04
2019-04-23T02:54:38.039Z,3.11
2019-04-23T02:59:51.291Z,3.13
2019-04-23T03:04:57.575Z,3.25
2019-04-23T03:10:01.844Z,3.12
2019-04-23T03:30:26.412Z,3.39
2019-04-23T03:36:10.943Z,3.41
2019-04-23T04:01:22.857Z,3.70
2019-04-23T04:06:20.928Z,3.70
2019-04-23T04:16:28.538Z,3.53
2019-04-23T04:21:39.752Z,3.89
2019-04-23T04:32:00.367Z,3.69
2019-04-23T04:37:18.317Z,3.75
2019-04-23T04:42:12.056Z,3.82
2019-04-23T04:47:15.473Z,3.79
2019-04-23T04:52:44.624Z,3.79
2019-04-23T05:02:53.144Z,4.12
2019-04-23T05:13:03.551Z,4.10
2019-04-23T05:18:08.280Z,4.16
2019-04-23T05:23:17.486Z,4.03
2019-04-23T05:28:12.446Z,4.31
2019-04-23T05:33:12.951Z,4.45
2019-04-23T05:38:38.019Z,4.38
2019-04-23T05:43:32.407Z,4.49
2019-04-23T05:48:33.395Z,4.16
2019-04-23T05:53:47.214Z,4.23
2019-04-23T06:09:02.925Z,4.46
2019-04-23T06:14:18.899Z,4.44
2019-04-23T06:24:34.978Z,4.43
2019-04-23T06:29:41.490Z,4.57
2019-04-23T06:34:33.670Z,4.51
2019-04-23T06:39:45.453Z,4.64
2019-04-23T06:44:54.896Z,4.50
2019-04-23T07:00:17.229Z,4.74
2019-04-23T07:05:25.255Z,4.73
2019-04-23T07:15:46.415Z,4.72
2019-04-23T07:20:54.834Z,4.68
2019-04-23T07:26:10.596Z,4.65
2019-04-23T07:31:14.290Z,4.61
2019-04-23T07:36:18.973Z,4.80
2019-04-23T07:41:23.727Z,4.53
2019-04-23T07:46:33.868Z,4.55
2019-04-23T07:51:39.355Z,4.82
2019-04-23T07:56:47.000Z,4.87
2019-04-23T08:01:49.188Z,4.78
2019-04-23T08:07:00.817Z,5.05
2019-04-23T08:22:20.761Z,4.79
2019-04-23T08:27:18.183Z,4.92
2019-04-23T08:32:21.505Z,4.71
2019-04-23T08:48:04.276Z,4.79
2019-04-23T08:53:17.816Z,5.04
2019-04-23T08:58:14.190Z,4.94
2019-04-23T09:08:17.241Z,4.90
2019-04-23T09:13:50.156Z,5.09
2019-04-23T09:18:27.830Z,5.01
2019-04-23T09:23:48.183Z,4.95
2019-04-23T09:28:51.759Z,4.90
2019-04-23T09:34:02.733Z,4.93
2019-04-23T09:39:08.506Z,5.60
2019-04-23T09:44:38.889Z,4.83
2019-04-23T09:49:18.710Z,4.85
2019-04-23T09:54:21.870Z,4.76
2019-04-23T09:59:41.289Z,4.84
2019-04-23T10:04:26.587Z,4.57
2019-04-23T10:09:22.718Z,4.81
2019-04-23T10:14:32.404Z,5.05
2019-04-23T10:19:37.722Z,4.90
2019-04-23T10:24:45.748Z,5.10
2019-04-23T10:29:54.090Z,4.78
2019-04-23T10:35:10.378Z,4.74
2019-04-23T10:40:14.251Z,4.97
2019-04-23T10:45:27.323Z,4.61
2019-04-23T10:50:40.607Z,4.74
2019-04-23T11:01:07.917Z,4.87
2019-04-23T11:06:16.552Z,4.64
2019-04-23T11:11:25.935Z,4.62
2019-04-23T11:16:39.997Z,4.76
2019-04-23T11:21:34.295Z,4.68
2019-04-23T11:26:42.743Z,4.78
2019-04-23T11:31:58.198Z,4.70
2019-04-23T11:37:06.134Z,4.39
2019-04-23T11:47:08.295Z,4.76
2019-04-23T11:52:08.391Z,4.65
2019-04-23T11:57:27.065Z,4.60
2019-04-23T12:02:40.259Z,4.88
2019-04-23T12:07:30.932Z,4.67
2019-04-23T12:12:33.258Z,4.68
2019-04-23T12:17:49.115Z,4.76
2019-04-23T12:23:19.363Z,4.86
2019-04-23T12:28:11.748Z,4.67
2019-04-23T12:33:28.095Z,4.70
2019-04-23T12:38:25.418Z,4.79
2019-04-23T12:43:23.287Z,4.94
2019-04-23T12:48:46.865Z,4.80
2019-04-23T12:53:45.463Z,4.71
2019-04-23T12:58:47.329Z,6.12
2019-04-23T13:04:01.474Z,4.94
2019-04-23T13:14:12.606Z,4.78
2019-04-23T13:19:32.762Z,4.88
2019-04-23T13:24:36.052Z,4.82
2019-04-23T13:29:27.253Z,4.67
2019-04-23T13:34:48.089Z,4.62
2019-04-23T13:39:48.027Z,4.89
2019-04-23T13:44:55.446Z,4.79
2019-04-23T13:55:10.926Z,4.72
2019-04-23T14:00:27.006Z,5.16
2019-04-23T14:10:35.997Z,5.11
2019-04-23T14:15:51.048Z,5.27
2019-04-23T14:36:07.589Z,5.00
2019-04-23T14:41:09.623Z,4.83
2019-04-23T14:46:33.725Z,5.05
2019-04-23T14:51:39.803Z,4.76
2019-04-23T14:56:38.960Z,4.95
2019-04-23T15:01:40.254Z,4.97
2019-04-23T15:06:58.278Z,5.06
2019-04-23T15:17:10.189Z,4.89
2019-04-23T15:22:15.213Z,5.35
2019-04-23T15:37:40.864Z,4.57
2019-04-23T15:42:52.016Z,4.67
2019-04-23T15:52:56.614Z,4.52
2019-04-23T16:02:46.351Z,4.57
2019-04-23T16:08:09.780Z,4.55
2019-04-23T16:13:29.067Z,4.58
2019-04-23T16:23:43.956Z,4.57
2019-04-23T16:29:00.696Z,4.59
2019-04-23T16:33:48.557Z,4.60
2019-04-23T16:38:56.543Z,4.61
2019-04-23T16:44:16.907Z,4.44
2019-04-23T16:49:13.112Z,4.46
2019-04-23T16:59:35.504Z,4.86
2019-04-23T17:04:34.981Z,4.62
2019-04-23T17:15:03.356Z,4.59
2019-04-23T17:20:14.824Z,4.62
2019-04-23T17:25:08.672Z,4.64
2019-04-23T17:30:12.007Z,4.78
2019-04-23T17:35:24.486Z,5.01
2019-04-23T17:40:30.876Z,4.75
2019-04-23T17:45:42.695Z,4.92
2019-04-23T17:50:56.601Z,4.92
2019-04-23T17:56:01.069Z,4.75
2019-04-23T18:01:17.748Z,4.88
2019-04-23T18:11:23.344Z,4.87
2019-04-23T18:16:30.406Z,4.93
2019-04-23T18:21:44.112Z,4.99
2019-04-23T18:26:51.520Z,4.81
2019-04-23T18:32:07.905Z,5.07
2019-04-23T18:37:02.733Z,5.04
2019-04-23T18:57:31.758Z,5.20
2019-04-23T19:07:57.158Z,5.29
2019-04-23T19:12:48.441Z,5.17
2019-04-23T19:17:50.255Z,5.21
2019-04-23T19:23:00.003Z,5.21
2019-04-23T19:28:23.944Z,5.18
2019-04-23T19:33:29.074Z,5.15
2019-04-23T19:38:33.008Z,5.24
2019-04-23T19:54:05.840Z,5.66
2019-04-23T20:09:24.850Z,5.75
2019-04-23T20:14:26.219Z,5.42
2019-04-23T20:19:37.361Z,5.55
2019-04-23T20:24:57.618Z,6.04
2019-04-23T20:30:02.462Z,5.74
2019-04-23T20:44:58.929Z,5.76
2019-04-23T20:50:16.415Z,6.09
2019-04-23T20:55:31.178Z,5.69
2019-04-23T21:00:25.780Z,5.88
2019-04-23T21:05:33.362Z,5.69
2019-04-23T21:15:46.058Z,5.74
2019-04-23T21:21:13.601Z,5.49
2019-04-23T21:26:02.165Z,5.81
2019-04-23T21:31:11.624Z,5.78
2019-04-23T21:36:29.018Z,5.78
2019-04-23T21:41:46.657Z,5.59
2019-04-23T21:46:36.737Z,6.03
2019-04-23T21:51:49.282Z,5.93
2019-04-23T22:01:54.139Z,5.88
2019-04-23T22:07:02.536Z,5.99
2019-04-23T22:12:19.627Z,6.14
2019-04-23T22:22:44.197Z,6.20
2019-04-23T22:32:40.784Z,6.31
2019-04-23T22:38:02.507Z,6.31
2019-04-23T22:43:14.727Z,5.86
2019-04-23T22:48:05.205Z,5.95
2019-04-23T22:53:08.071Z,6.11
2019-04-23T22:58:09.670Z,6.05
2019-04-23T23:03:21.191Z,6.20
2019-04-23T23:08:30.735Z,6.40
2019-04-23T23:13:52.227Z,6.24
2019-04-23T23:18:40.462Z,6.47
2019-04-23T23:23:54.752Z,6.47
2019-04-23T23:28:55.113Z,6.63
2019-04-23T23:33:55.533Z,6.38
2019-04-23T23:39:16.210Z,6.35
2019-04-23T23:44:35.188Z,6.20
2019-04-23T23:49:27.924Z,6.36
2019-04-23T23:54:28.911Z,6.38
2019-04-23T23:59:47.798Z,6.16
